Diamantakis — SW5831 — position and weather

sailwx.info

Track history (hours):
 
Tides and Currents Weather Stations Pressure Air Temp Water Temp Dewpoint Dewpoint Depression Visibility Wind Speed Wind Dir Waves Ship Positions

Diamantakis

Last reported at 2018-Jun-23 15:54 UTC. Time now 2018-Jun-25 15:50 UTC.
Position N 40°58' E 025°08'.

Length 16 m; draft 1.6 m.

Type: Fishing. MMSI: 239608000.

Date/timePositionNaut miles runAvg speedWind from/ knotsBaromVisibWave heightAir tempDewpointWater temp
2018-Jun-23 15:54N 40°58' E 025°08'1 0.1
2018-Jun-22 12:44N 40°56' E 025°08'2 8.4
2018-Jun-22 12:29N 40°54' E 025°09'4 8.3
2018-Jun-22 12:00N 40°51' E 025°11'4 8.4
2018-Jun-22 11:31N 40°47' E 025°12'4 8.4
2018-Jun-22 11:01N 40°42' E 025°13'1 2.5
2018-Jun-22 10:31N 40°42' E 025°11'1 2.9
2018-Jun-22 10:01N 40°42' E 025°09'2 3.0
2018-Jun-22 09:31N 40°43' E 025°07'2 3.1
2018-Jun-22 09:00N 40°43' E 025°05'1 2.9
2018-Jun-22 08:30N 40°43' E 025°03'1 2.5
2018-Jun-22 08:00N 40°42' E 025°01'1 2.5
2018-Jun-22 07:31N 40°42' E 024°60'0 0.6
2018-Jun-22 07:01N 40°42' E 025°00'2 3.3
2018-Jun-22 06:31N 40°42' E 024°58'2 3.0
2018-Jun-22 06:01N 40°42' E 024°56'1 1.2
2018-Jun-22 05:30N 40°41' E 024°56'4 8.5
2018-Jun-22 05:00N 40°41' E 025°02'4 8.4
2018-Jun-22 04:30N 40°42' E 025°07'3 6.8
2018-Jun-22 04:00N 40°42' E 025°12'2 4.0
2018-Jun-22 03:30N 40°44' E 025°11'13 1.0
2018-Jun-21 15:01N 40°57' E 025°07'2 8.6
2018-Jun-21 14:49N 40°55' E 025°08'4 8.7
2018-Jun-21 14:23N 40°52' E 025°09'3 8.7
2018-Jun-21 14:00N 40°48' E 025°10'5 8.9
2018-Jun-21 13:25N 40°43' E 025°12'1 3.3
2018-Jun-21 13:00N 40°42' E 025°11'1 3.0
2018-Jun-21 12:30N 40°42' E 025°09'2 3.1
2018-Jun-21 12:00N 40°42' E 025°07'1 2.9
2018-Jun-21 11:30N 40°42' E 025°05'1 2.7
2018-Jun-21 11:00N 40°42' E 025°04'1 2.8
2018-Jun-21 10:30N 40°42' E 025°02'2 4.8
2018-Jun-21 10:00N 40°43' E 025°05'3 7.0
2018-Jun-21 09:30N 40°43' E 025°09'3 6.9
2018-Jun-21 09:00N 40°43' E 025°14'1 1.8
2018-Jun-21 08:30N 40°43' E 025°15'1 2.6
2018-Jun-21 08:00N 40°43' E 025°14'3 5.5
2018-Jun-21 07:30N 40°43' E 025°17'1 2.2
2018-Jun-21 06:59N 40°43' E 025°16'1 1.9
2018-Jun-21 06:30N 40°43' E 025°14'1 1.8
2018-Jun-21 06:00N 40°43' E 025°13'3 6.1
2018-Jun-21 05:30N 40°43' E 025°17'1 2.6
2018-Jun-21 05:00N 40°43' E 025°19'1 2.6
2018-Jun-21 04:30N 40°43' E 025°21'1 2.7
2018-Jun-21 03:59N 40°43' E 025°22'3 5.6
2018-Jun-21 03:30N 40°45' E 025°20'16 1.3
2018-Jun-20 14:59N 40°51' E 025°00'4 7.9
2018-Jun-20 14:30N 40°48' E 024°57'2 4.9
2018-Jun-20 14:00N 40°46' E 024°55'2 2.9
2018-Jun-20 13:29N 40°44' E 024°55'1 2.9
2018-Jun-20 12:59N 40°43' E 024°55'2 4.4
2018-Jun-20 12:30N 40°41' E 024°55'1 2.5
2018-Jun-20 12:01N 40°41' E 024°56'1 2.8
2018-Jun-20 11:30N 40°41' E 024°55'1 2.2
2018-Jun-20 11:00N 40°41' E 024°56'1 2.4
2018-Jun-20 10:30N 40°41' E 024°58'1 2.5
2018-Jun-20 10:00N 40°41' E 024°59'1 1.6
2018-Jun-20 09:31N 40°42' E 024°58'3 5.5
2018-Jun-20 09:00N 40°41' E 024°55'1 2.3
2018-Jun-20 08:30N 40°41' E 024°56'1 2.8
2018-Jun-20 08:01N 40°42' E 024°58'1 2.8
2018-Jun-20 07:30N 40°42' E 024°60'2 3.4
2018-Jun-20 07:01N 40°42' E 024°58'2 3.4
2018-Jun-20 06:30N 40°42' E 024°55'1 2.6
2018-Jun-20 06:00N 40°42' E 024°57'1 2.7
2018-Jun-20 05:31N 40°42' E 024°59'0 0.4
2018-Jun-20 05:00N 40°42' E 024°58'3 5.6
2018-Jun-20 04:30N 40°42' E 024°55'2 4.3
2018-Jun-20 04:00N 40°44' E 024°55'14 0.4
2018-Jun-18 13:17N 40°55' E 025°06'2 7.9
2018-Jun-18 13:00N 40°54' E 025°04'4 7.6
2018-Jun-18 12:30N 40°51' E 025°00'4 7.4
2018-Jun-18 12:00N 40°48' E 024°57'2 3.4
2018-Jun-18 11:30N 40°47' E 024°55'1 1.9
2018-Jun-18 11:01N 40°46' E 024°55'1 2.6
2018-Jun-18 10:31N 40°45' E 024°55'1 2.4
2018-Jun-18 10:00N 40°44' E 024°55'1 2.5
2018-Jun-18 09:30N 40°43' E 024°55'1 2.3
2018-Jun-18 09:00N 40°41' E 024°55'1 2.8
2018-Jun-18 08:30N 40°42' E 024°57'1 2.8
2018-Jun-18 08:00N 40°42' E 024°59'1 2.2
2018-Jun-18 07:30N 40°42' E 025°00'0 0.4
2018-Jun-18 07:00N 40°42' E 025°01'1 2.2
2018-Jun-18 06:30N 40°42' E 025°02'1 2.7
2018-Jun-18 05:59N 40°43' E 025°04'1 2.7
2018-Jun-18 05:31N 40°43' E 025°06'1 2.6
2018-Jun-18 05:01N 40°43' E 025°07'  
2018-Jun-15 14:45N 40°55' E 025°08'3 8.4
2018-Jun-15 14:26N 40°52' E 025°09'4 8.3
2018-Jun-15 14:00N 40°49' E 025°10'4 8.4
2018-Jun-15 13:29N 40°45' E 025°12'2 4.9
2018-Jun-15 12:59N 40°43' E 025°14'0 0.5
2018-Jun-15 12:19N 40°42' E 025°15'2 6.7
2018-Jun-15 11:59N 40°42' E 025°12'1 2.1
2018-Jun-15 11:28N 40°42' E 025°10'1 2.3
2018-Jun-15 11:00N 40°42' E 025°09'1 2.2
2018-Jun-15 10:31N 40°42' E 025°07'3 6.6
2018-Jun-15 10:00N 40°42' E 025°12'4 7.7
2018-Jun-15 09:30N 40°43' E 025°17'2 1.4
2018-Jun-15 08:25N 40°43' E 025°19'3 6.8
2018-Jun-15 07:56N 40°43' E 025°14'3 6.4
2018-Jun-15 07:24N 40°42' E 025°10'2 5.3
2018-Jun-15 07:00N 40°42' E 025°07'1 2.1
2018-Jun-15 06:29N 40°42' E 025°06'1 2.0
2018-Jun-15 06:00N 40°42' E 025°05'1 2.0
2018-Jun-15 05:30N 40°42' E 025°03'1 2.1
2018-Jun-15 05:00N 40°42' E 025°02'1 2.5
2018-Jun-15 04:30N 40°43' E 025°00'4 8.2
2018-Jun-15 04:00N 40°47' E 025°01'  
Track history (hours):
 
Tides and Currents Weather Stations Pressure Air Temp Water Temp Dewpoint Dewpoint Depression Visibility Wind Speed Wind Dir Waves Ship Positions

Diamantakis

Last reported at 2018-Jun-23 15:54 UTC. Time now 2018-Jun-25 15:50 UTC.
Position N 40°58' E 025°08'.

Length 16 m; draft 1.6 m.

Type: Fishing. MMSI: 239608000.

Date/timePositionNaut miles runAvg speedWind from/ knotsBaromVisibWave heightAir tempDewpointWater temp
2018-Jun-23 15:54N 40°58' E 025°08'1 0.1
2018-Jun-22 12:44N 40°56' E 025°08'2 8.4
2018-Jun-22 12:29N 40°54' E 025°09'4 8.3
2018-Jun-22 12:00N 40°51' E 025°11'4 8.4
2018-Jun-22 11:31N 40°47' E 025°12'4 8.4
2018-Jun-22 11:01N 40°42' E 025°13'1 2.5
2018-Jun-22 10:31N 40°42' E 025°11'1 2.9
2018-Jun-22 10:01N 40°42' E 025°09'2 3.0
2018-Jun-22 09:31N 40°43' E 025°07'2 3.1
2018-Jun-22 09:00N 40°43' E 025°05'1 2.9
2018-Jun-22 08:30N 40°43' E 025°03'1 2.5
2018-Jun-22 08:00N 40°42' E 025°01'1 2.5
2018-Jun-22 07:31N 40°42' E 024°60'0 0.6
2018-Jun-22 07:01N 40°42' E 025°00'2 3.3
2018-Jun-22 06:31N 40°42' E 024°58'2 3.0
2018-Jun-22 06:01N 40°42' E 024°56'1 1.2
2018-Jun-22 05:30N 40°41' E 024°56'4 8.5
2018-Jun-22 05:00N 40°41' E 025°02'4 8.4
2018-Jun-22 04:30N 40°42' E 025°07'3 6.8
2018-Jun-22 04:00N 40°42' E 025°12'2 4.0
2018-Jun-22 03:30N 40°44' E 025°11'13 1.0
2018-Jun-21 15:01N 40°57' E 025°07'2 8.6
2018-Jun-21 14:49N 40°55' E 025°08'4 8.7
2018-Jun-21 14:23N 40°52' E 025°09'3 8.7
2018-Jun-21 14:00N 40°48' E 025°10'5 8.9
2018-Jun-21 13:25N 40°43' E 025°12'1 3.3
2018-Jun-21 13:00N 40°42' E 025°11'1 3.0
2018-Jun-21 12:30N 40°42' E 025°09'2 3.1
2018-Jun-21 12:00N 40°42' E 025°07'1 2.9
2018-Jun-21 11:30N 40°42' E 025°05'1 2.7
2018-Jun-21 11:00N 40°42' E 025°04'1 2.8
2018-Jun-21 10:30N 40°42' E 025°02'2 4.8
2018-Jun-21 10:00N 40°43' E 025°05'3 7.0
2018-Jun-21 09:30N 40°43' E 025°09'3 6.9
2018-Jun-21 09:00N 40°43' E 025°14'1 1.8
2018-Jun-21 08:30N 40°43' E 025°15'1 2.6
2018-Jun-21 08:00N 40°43' E 025°14'3 5.5
2018-Jun-21 07:30N 40°43' E 025°17'1 2.2
2018-Jun-21 06:59N 40°43' E 025°16'1 1.9
2018-Jun-21 06:30N 40°43' E 025°14'1 1.8
2018-Jun-21 06:00N 40°43' E 025°13'3 6.1
2018-Jun-21 05:30N 40°43' E 025°17'1 2.6
2018-Jun-21 05:00N 40°43' E 025°19'1 2.6
2018-Jun-21 04:30N 40°43' E 025°21'1 2.7
2018-Jun-21 03:59N 40°43' E 025°22'3 5.6
2018-Jun-21 03:30N 40°45' E 025°20'16 1.3
2018-Jun-20 14:59N 40°51' E 025°00'4 7.9
2018-Jun-20 14:30N 40°48' E 024°57'2 4.9
2018-Jun-20 14:00N 40°46' E 024°55'2 2.9
2018-Jun-20 13:29N 40°44' E 024°55'1 2.9
2018-Jun-20 12:59N 40°43' E 024°55'2 4.4
2018-Jun-20 12:30N 40°41' E 024°55'1 2.5
2018-Jun-20 12:01N 40°41' E 024°56'1 2.8
2018-Jun-20 11:30N 40°41' E 024°55'1 2.2
2018-Jun-20 11:00N 40°41' E 024°56'1 2.4
2018-Jun-20 10:30N 40°41' E 024°58'1 2.5
2018-Jun-20 10:00N 40°41' E 024°59'1 1.6
2018-Jun-20 09:31N 40°42' E 024°58'3 5.5
2018-Jun-20 09:00N 40°41' E 024°55'1 2.3
2018-Jun-20 08:30N 40°41' E 024°56'1 2.8
2018-Jun-20 08:01N 40°42' E 024°58'1 2.8
2018-Jun-20 07:30N 40°42' E 024°60'2 3.4
2018-Jun-20 07:01N 40°42' E 024°58'2 3.4
2018-Jun-20 06:30N 40°42' E 024°55'1 2.6
2018-Jun-20 06:00N 40°42' E 024°57'1 2.7
2018-Jun-20 05:31N 40°42' E 024°59'0 0.4
2018-Jun-20 05:00N 40°42' E 024°58'3 5.6
2018-Jun-20 04:30N 40°42' E 024°55'2 4.3
2018-Jun-20 04:00N 40°44' E 024°55'14 0.4
2018-Jun-18 13:17N 40°55' E 025°06'2 7.9
2018-Jun-18 13:00N 40°54' E 025°04'4 7.6
2018-Jun-18 12:30N 40°51' E 025°00'4 7.4
2018-Jun-18 12:00N 40°48' E 024°57'2 3.4
2018-Jun-18 11:30N 40°47' E 024°55'1 1.9
2018-Jun-18 11:01N 40°46' E 024°55'1 2.6
2018-Jun-18 10:31N 40°45' E 024°55'1 2.4
2018-Jun-18 10:00N 40°44' E 024°55'1 2.5
2018-Jun-18 09:30N 40°43' E 024°55'1 2.3
2018-Jun-18 09:00N 40°41' E 024°55'1 2.8
2018-Jun-18 08:30N 40°42' E 024°57'1 2.8
2018-Jun-18 08:00N 40°42' E 024°59'1 2.2
2018-Jun-18 07:30N 40°42' E 025°00'0 0.4
2018-Jun-18 07:00N 40°42' E 025°01'1 2.2
2018-Jun-18 06:30N 40°42' E 025°02'1 2.7
2018-Jun-18 05:59N 40°43' E 025°04'1 2.7
2018-Jun-18 05:31N 40°43' E 025°06'1 2.6
2018-Jun-18 05:01N 40°43' E 025°07'  
2018-Jun-15 14:45N 40°55' E 025°08'3 8.4
2018-Jun-15 14:26N 40°52' E 025°09'4 8.3
2018-Jun-15 14:00N 40°49' E 025°10'4 8.4
2018-Jun-15 13:29N 40°45' E 025°12'2 4.9
2018-Jun-15 12:59N 40°43' E 025°14'0 0.5
2018-Jun-15 12:19N 40°42' E 025°15'2 6.7
2018-Jun-15 11:59N 40°42' E 025°12'1 2.1
2018-Jun-15 11:28N 40°42' E 025°10'1 2.3
2018-Jun-15 11:00N 40°42' E 025°09'1 2.2
2018-Jun-15 10:31N 40°42' E 025°07'3 6.6
2018-Jun-15 10:00N 40°42' E 025°12'4 7.7
2018-Jun-15 09:30N 40°43' E 025°17'2 1.4
2018-Jun-15 08:25N 40°43' E 025°19'3 6.8
2018-Jun-15 07:56N 40°43' E 025°14'3 6.4
2018-Jun-15 07:24N 40°42' E 025°10'2 5.3
2018-Jun-15 07:00N 40°42' E 025°07'1 2.1
2018-Jun-15 06:29N 40°42' E 025°06'1 2.0
2018-Jun-15 06:00N 40°42' E 025°05'1 2.0
2018-Jun-15 05:30N 40°42' E 025°03'1 2.1
2018-Jun-15 05:00N 40°42' E 025°02'1 2.5
2018-Jun-15 04:30N 40°43' E 025°00'4 8.2
2018-Jun-15 04:00N 40°47' E 025°01'  

Dump ship's entire track history